createdAt,value
2019-04-26T00:00:00.300Z,6.70
2019-04-26T00:02:45.560Z,6.50
2019-04-26T00:05:14.737Z,6.40
2019-04-26T00:13:04.549Z,6.20
2019-04-26T00:18:12.816Z,6.10
2019-04-26T00:25:39.269Z,6.60
2019-04-26T00:42:58.203Z,6.00
2019-04-26T00:45:29.724Z,6.10
2019-04-26T00:50:26.807Z,6.10
2019-04-26T00:52:56.074Z,6.00
2019-04-26T00:57:53.028Z,6.00
2019-04-26T01:00:22.355Z,6.20
2019-04-26T01:07:50.999Z,6.20
2019-04-26T01:10:19.660Z,6.00
2019-04-26T01:12:48.278Z,6.00
2019-04-26T01:17:46.505Z,5.90
2019-04-26T01:33:19.162Z,6.40
2019-04-26T01:35:57.247Z,6.20
2019-04-26T01:38:25.764Z,6.10
2019-04-26T01:40:55.801Z,6.20
2019-04-26T01:43:43.646Z,6.20
2019-04-26T01:46:16.773Z,6.20
2019-04-26T01:51:26.854Z,6.50
2019-04-26T01:53:55.542Z,6.50
2019-04-26T02:01:40.290Z,6.70
2019-04-26T02:04:08.789Z,7.00
2019-04-26T02:09:07.957Z,7.10
2019-04-26T02:14:05.351Z,7.30
2019-04-26T02:16:33.875Z,7.30
2019-04-26T02:21:35.192Z,7.40
2019-04-26T02:24:17.482Z,7.40
2019-04-26T02:29:20.779Z,7.60
2019-04-26T02:31:52.041Z,7.60
2019-04-26T02:39:22.441Z,7.70
2019-04-26T02:44:26.614Z,7.80
2019-04-26T03:02:15.371Z,8.20
2019-04-26T03:04:46.635Z,8.20
2019-04-26T03:07:20.921Z,8.30
2019-04-26T03:12:22.379Z,8.20
2019-04-26T03:15:13.306Z,8.10
2019-04-26T03:20:18.553Z,7.90
2019-04-26T03:23:05.435Z,7.80
2019-04-26T03:30:54.448Z,7.50
2019-04-26T03:33:54.003Z,7.60
2019-04-26T03:37:19.109Z,7.60
2019-04-26T03:39:44.358Z,7.50
2019-04-26T03:42:33.186Z,7.60
2019-04-26T03:45:21.028Z,7.70
2019-04-26T03:47:58.423Z,7.90
2019-04-26T03:50:35.249Z,8.00
2019-04-26T03:53:27.061Z,8.00
2019-04-26T03:56:16.950Z,8.00
2019-04-26T03:58:58.727Z,8.00
2019-04-26T04:01:31.702Z,8.00
2019-04-26T04:04:04.193Z,8.00
2019-04-26T04:06:52.621Z,8.00
2019-04-26T04:09:09.660Z,8.10
2019-04-26T04:12:10.065Z,8.10
2019-04-26T04:14:48.519Z,8.30
2019-04-26T04:17:21.698Z,8.30
2019-04-26T04:20:24.383Z,8.30
2019-04-26T04:23:18.551Z,8.40
2019-04-26T04:25:49.665Z,8.50
2019-04-26T04:28:56.288Z,8.70
2019-04-26T04:31:47.677Z,8.90
2019-04-26T04:34:34.577Z,9.00
2019-04-26T04:37:05.902Z,8.90
2019-04-26T04:39:44.848Z,8.80
2019-04-26T04:42:39.252Z,8.80
2019-04-26T04:45:42.474Z,8.80
2019-04-26T04:48:44.579Z,8.90
2019-04-26T04:51:51.657Z,9.00
2019-04-26T04:54:32.401Z,9.00
2019-04-26T04:57:06.369Z,9.00
2019-04-26T04:59:44.073Z,9.00
2019-04-26T05:02:26.426Z,8.90
2019-04-26T05:05:05.027Z,8.90
2019-04-26T05:08:06.522Z,8.80
2019-04-26T05:10:38.122Z,8.90
2019-04-26T05:13:25.165Z,8.90
2019-04-26T05:16:33.251Z,8.90
2019-04-26T05:19:31.351Z,8.90
2019-04-26T05:22:25.444Z,8.90
2019-04-26T05:25:42.350Z,8.90
2019-04-26T05:28:40.730Z,8.80
2019-04-26T05:31:25.700Z,8.60
2019-04-26T05:37:04.379Z,8.50
2019-04-26T05:39:44.830Z,8.50
2019-04-26T05:42:29.268Z,8.50
2019-04-26T05:45:18.781Z,8.50
2019-04-26T05:48:06.262Z,8.50
2019-04-26T05:50:43.896Z,8.50
2019-04-26T05:53:35.018Z,8.50
2019-04-26T05:56:23.108Z,8.40
2019-04-26T05:58:54.609Z,8.40
2019-04-26T06:01:39.384Z,8.40
2019-04-26T06:04:27.796Z,8.30
2019-04-26T06:12:30.624Z,8.10
2019-04-26T06:15:36.392Z,8.10
2019-04-26T06:18:21.450Z,8.10
2019-04-26T06:23:30.229Z,8.10
2019-04-26T06:26:25.655Z,8.10
2019-04-26T06:29:05.984Z,8.20
2019-04-26T06:34:07.079Z,8.20
2019-04-26T06:39:23.324Z,8.20
2019-04-26T06:42:12.684Z,8.30
2019-04-26T06:44:48.165Z,8.40
2019-04-26T06:47:26.698Z,8.50
2019-04-26T06:50:23.645Z,8.60
2019-04-26T06:53:01.569Z,8.60
2019-04-26T06:55:36.641Z,8.60
2019-04-26T07:00:43.798Z,8.60
2019-04-26T07:03:15.604Z,8.60
2019-04-26T07:05:47.100Z,8.60
2019-04-26T07:08:42.421Z,8.60
2019-04-26T07:11:29.767Z,8.70
2019-04-26T07:14:18.588Z,8.70
2019-04-26T07:19:52.882Z,8.60
2019-04-26T07:28:06.376Z,8.60
2019-04-26T07:33:40.024Z,8.60
2019-04-26T07:36:26.048Z,8.70
2019-04-26T07:39:10.401Z,8.70
2019-04-26T07:41:51.388Z,8.70
2019-04-26T07:44:57.372Z,8.80
2019-04-26T07:47:54.346Z,8.80
2019-04-26T07:50:47.933Z,8.90
2019-04-26T07:53:28.370Z,8.90
2019-04-26T07:56:07.110Z,8.90
2019-04-26T07:58:41.729Z,8.90
2019-04-26T08:01:23.753Z,8.90
2019-04-26T08:03:59.709Z,9.00
2019-04-26T08:06:34.249Z,9.00
2019-04-26T08:09:09.610Z,9.00
2019-04-26T08:11:54.573Z,9.00
2019-04-26T08:14:28.961Z,9.00
2019-04-26T08:17:11.065Z,9.10
2019-04-26T08:19:59.557Z,9.30
2019-04-26T08:22:32.597Z,9.30
2019-04-26T08:25:03.387Z,9.30
2019-04-26T08:27:34.036Z,9.20
2019-04-26T08:30:10.072Z,9.20
2019-04-26T08:32:38.809Z,9.10
2019-04-26T08:35:16.029Z,9.10
2019-04-26T08:37:47.698Z,9.10
2019-04-26T08:40:27.515Z,9.00
2019-04-26T08:43:02.511Z,8.90
2019-04-26T08:45:35.356Z,9.00
2019-04-26T08:48:10.441Z,9.00
2019-04-26T08:50:42.167Z,9.00
2019-04-26T08:53:12.040Z,8.90
2019-04-26T08:55:43.461Z,9.00
2019-04-26T08:58:14.134Z,9.00
2019-04-26T09:00:55.488Z,9.10
2019-04-26T09:03:32.390Z,9.20
2019-04-26T09:06:05.716Z,9.20
2019-04-26T09:08:39.276Z,9.30
2019-04-26T09:11:09.084Z,9.40
2019-04-26T09:13:40.642Z,9.40
2019-04-26T09:16:11.959Z,9.40
2019-04-26T09:18:43.492Z,9.40
2019-04-26T09:21:13.380Z,9.50
2019-04-26T09:23:59.055Z,9.40
2019-04-26T09:26:34.946Z,9.30
2019-04-26T09:29:07.741Z,9.40
2019-04-26T09:31:50.365Z,9.40
2019-04-26T09:34:24.393Z,9.40
2019-04-26T09:36:52.809Z,9.50
2019-04-26T09:39:21.998Z,9.70
2019-04-26T09:41:50.757Z,9.70
2019-04-26T09:44:37.668Z,9.90
2019-04-26T09:47:17.335Z,10.00
2019-04-26T09:49:47.380Z,10.00
2019-04-26T09:52:20.096Z,10.10
2019-04-26T09:54:48.501Z,10.20
2019-04-26T09:57:17.000Z,10.30
2019-04-26T09:59:45.413Z,10.30
2019-04-26T10:02:13.829Z,10.30
2019-04-26T10:04:42.271Z,10.30
2019-04-26T10:07:10.671Z,10.30
2019-04-26T10:09:51.740Z,10.20
2019-04-26T10:12:28.858Z,10.30
2019-04-26T10:32:26.253Z,10.30
2019-04-26T10:34:53.928Z,10.30
2019-04-26T10:49:48.868Z,9.90
2019-04-26T10:52:35.487Z,10.00
2019-04-26T10:57:39.101Z,9.90
2019-04-26T11:00:10.200Z,9.90
2019-04-26T11:02:38.630Z,10.00
2019-04-26T11:07:35.879Z,10.00
2019-04-26T11:10:06.302Z,10.00
2019-04-26T11:12:34.726Z,10.00
2019-04-26T11:42:19.517Z,11.40
2019-04-26T11:49:45.730Z,11.90
2019-04-26T11:57:12.203Z,11.80
2019-04-26T11:59:40.803Z,11.80
2019-04-26T12:02:12.335Z,11.70
2019-04-26T12:04:44.242Z,11.70
2019-04-26T12:17:10.283Z,11.80
2019-04-26T12:24:36.696Z,11.80
2019-04-26T12:29:33.315Z,11.70
2019-04-26T12:32:01.749Z,11.70
2019-04-26T12:34:30.156Z,11.90
2019-04-26T12:36:58.577Z,12.00
2019-04-26T12:49:24.286Z,12.20
2019-04-26T12:54:20.927Z,12.20
2019-04-26T12:56:49.346Z,12.10
2019-04-26T13:09:26.589Z,11.60
2019-04-26T13:11:57.808Z,11.60
2019-04-26T13:17:17.462Z,11.50
2019-04-26T13:19:49.597Z,11.50
2019-04-26T13:22:16.870Z,11.40
2019-04-26T13:29:41.901Z,11.30
2019-04-26T13:42:09.163Z,10.80
2019-04-26T13:47:26.992Z,10.90
2019-04-26T13:59:55.744Z,11.90
2019-04-26T14:02:24.177Z,11.80
2019-04-26T14:04:52.967Z,12.00
2019-04-26T14:14:48.318Z,12.20
2019-04-26T14:17:16.751Z,12.10
2019-04-26T14:22:16.989Z,12.30
2019-04-26T14:24:47.045Z,12.40
2019-04-26T14:27:17.112Z,12.50
2019-04-26T14:29:45.523Z,12.50
2019-04-26T14:37:14.938Z,12.60
2019-04-26T14:39:50.082Z,12.60
2019-04-26T14:49:42.695Z,12.50
2019-04-26T14:52:29.056Z,12.50
2019-04-26T14:59:57.484Z,12.40
2019-04-26T15:02:30.549Z,12.40
2019-04-26T15:07:51.488Z,12.50
2019-04-26T15:10:21.216Z,12.60
2019-04-26T15:12:58.317Z,12.60
2019-04-26T15:15:19.857Z,12.60
2019-04-26T15:17:48.290Z,12.70
2019-04-26T15:20:20.790Z,12.60
2019-04-26T15:30:13.720Z,12.60
2019-04-26T15:37:42.223Z,12.80
2019-04-26T15:40:31.885Z,12.80
2019-04-26T15:45:38.839Z,12.70
2019-04-26T15:53:14.686Z,12.50
2019-04-26T15:55:43.541Z,12.50
2019-04-26T16:03:08.421Z,12.20
2019-04-26T16:05:37.196Z,12.20
2019-04-26T16:08:05.878Z,12.20
2019-04-26T16:20:38.044Z,12.20
2019-04-26T16:25:34.413Z,12.10
2019-04-26T16:28:15.890Z,12.10
2019-04-26T16:30:54.645Z,12.10
2019-04-26T16:33:36.777Z,11.90
2019-04-26T16:36:06.274Z,11.70
2019-04-26T16:41:04.869Z,11.60
2019-04-26T16:48:32.010Z,11.50
2019-04-26T16:51:01.021Z,11.50
2019-04-26T16:54:02.193Z,11.50
2019-04-26T16:56:00.997Z,11.40
2019-04-26T17:03:27.803Z,11.30
2019-04-26T17:06:04.595Z,11.30
2019-04-26T17:13:29.861Z,11.20
2019-04-26T17:15:58.304Z,11.20
2019-04-26T17:18:27.069Z,11.20
2019-04-26T17:23:29.854Z,11.10
2019-04-26T17:26:05.596Z,11.10
2019-04-26T17:33:32.535Z,10.90
2019-04-26T17:36:00.814Z,10.80
2019-04-26T17:38:31.167Z,10.80
2019-04-26T17:41:00.637Z,10.70
2019-04-26T17:55:54.803Z,10.50
2019-04-26T17:58:31.120Z,10.50
2019-04-26T18:00:56.460Z,10.50
2019-04-26T18:03:24.185Z,10.50
2019-04-26T18:05:57.282Z,10.50
2019-04-26T18:13:20.796Z,10.40
2019-04-26T18:23:54.589Z,10.40
2019-04-26T18:26:21.503Z,10.30
2019-04-26T18:28:53.361Z,10.30
2019-04-26T18:33:50.504Z,10.30
2019-04-26T18:41:22.980Z,10.30
2019-04-26T18:48:53.534Z,10.20
2019-04-26T18:54:02.788Z,10.20
2019-04-26T19:01:34.675Z,10.00
2019-04-26T19:04:09.858Z,10.00
2019-04-26T19:16:56.872Z,10.00
2019-04-26T19:22:09.559Z,10.00
2019-04-26T19:24:38.575Z,10.00
2019-04-26T19:27:06.312Z,10.00
2019-04-26T19:29:36.193Z,10.00
2019-04-26T19:32:05.254Z,10.00
2019-04-26T19:34:33.667Z,9.90
2019-04-26T19:37:03.387Z,9.90
2019-04-26T19:39:35.051Z,9.90
2019-04-26T19:42:02.533Z,9.80
2019-04-26T19:47:27.777Z,9.80
2019-04-26T19:50:03.110Z,9.70
2019-04-26T19:52:39.595Z,9.70
2019-04-26T20:00:12.172Z,9.60
2019-04-26T20:02:42.002Z,9.50
2019-04-26T20:05:11.896Z,9.50
2019-04-26T20:12:38.398Z,9.50
2019-04-26T20:15:07.765Z,9.40
2019-04-26T20:20:16.931Z,9.40
2019-04-26T20:30:02.373Z,9.40
2019-04-26T20:50:11.995Z,9.30
2019-04-26T21:07:34.281Z,9.30
2019-04-26T21:10:02.797Z,9.30
2019-04-26T21:17:28.291Z,9.20
2019-04-26T21:19:58.578Z,9.10
2019-04-26T21:22:28.743Z,9.10
2019-04-26T21:25:04.329Z,9.10
2019-04-26T21:37:58.239Z,9.00
2019-04-26T21:47:56.016Z,8.90
2019-04-26T21:57:53.836Z,8.90
2019-04-26T22:00:24.886Z,8.90
2019-04-26T22:02:53.457Z,8.90
2019-04-26T22:05:22.371Z,8.90
2019-04-26T22:12:48.662Z,8.80
2019-04-26T22:17:59.242Z,8.90
2019-04-26T22:23:06.731Z,8.80
2019-04-26T22:28:04.941Z,8.80
2019-04-26T22:42:57.867Z,8.60
2019-04-26T22:45:30.673Z,8.60
2019-04-26T22:52:56.909Z,8.60
2019-04-26T23:00:29.325Z,8.40
2019-04-26T23:02:58.014Z,8.40
2019-04-26T23:05:25.266Z,8.50
2019-04-26T23:08:13.776Z,8.50
2019-04-26T23:10:43.853Z,8.50
2019-04-26T23:13:13.908Z,8.40
2019-04-26T23:16:08.582Z,8.30
2019-04-26T23:18:43.854Z,8.30
2019-04-26T23:21:18.056Z,8.30
2019-04-26T23:23:46.485Z,8.30
2019-04-26T23:26:14.911Z,8.40
2019-04-26T23:28:43.393Z,8.30
2019-04-26T23:31:13.409Z,8.20
2019-04-26T23:33:42.935Z,8.10
2019-04-26T23:36:11.515Z,8.00
2019-04-26T23:38:39.925Z,8.00
2019-04-26T23:41:08.364Z,8.00
2019-04-26T23:43:36.786Z,8.00
2019-04-26T23:46:05.189Z,7.90
2019-04-26T23:48:33.618Z,7.90
2019-04-26T23:51:04.921Z,7.90
2019-04-26T23:53:33.913Z,7.70
2019-04-26T23:56:02.606Z,7.80
2019-04-26T23:58:31.053Z,7.80
